createdAt,value
2022-08-31T00:01:21.355Z,5.60
2022-08-31T00:06:25.205Z,4.72
2022-08-31T00:11:31.280Z,5.03
2022-08-31T00:16:39.668Z,3.50
2022-08-31T00:21:44.924Z,3.28
2022-08-31T00:26:50.144Z,5.22
2022-08-31T00:31:53.884Z,4.97
2022-08-31T00:36:57.568Z,6.72
2022-08-31T00:42:02.613Z,7.20
2022-08-31T00:47:07.055Z,3.80
2022-08-31T00:52:18.069Z,7.15
2022-08-31T00:57:31.987Z,3.70
2022-08-31T01:02:39.162Z,6.60
2022-08-31T01:07:45.131Z,3.22
2022-08-31T01:12:53.881Z,2.72
2022-08-31T01:18:06.673Z,3.80
2022-08-31T01:23:18.776Z,3.22
2022-08-31T01:28:23.316Z,6.28
2022-08-31T01:33:28.060Z,5.68
2022-08-31T01:38:35.322Z,7.22
2022-08-31T01:48:46.594Z,3.50
2022-08-31T01:58:58.752Z,6.28
2022-08-31T02:04:28.990Z,4.43
2022-08-31T02:09:34.662Z,4.95
2022-08-31T02:14:38.363Z,4.43
2022-08-31T02:19:42.202Z,4.47
2022-08-31T02:24:47.319Z,5.13
2022-08-31T02:29:51.053Z,4.97
2022-08-31T02:34:54.995Z,4.57
2022-08-31T02:40:00.137Z,3.83
2022-08-31T02:45:04.479Z,3.72
2022-08-31T02:50:10.033Z,5.07
2022-08-31T02:55:15.461Z,5.82
2022-08-31T03:00:23.762Z,3.72
2022-08-31T03:05:28.658Z,7.07
2022-08-31T03:10:35.629Z,4.07
2022-08-31T03:15:39.400Z,4.28
2022-08-31T03:20:43.309Z,3.05
2022-08-31T03:25:49.043Z,4.18
2022-08-31T03:30:53.525Z,3.30
2022-08-31T03:35:57.826Z,3.80
2022-08-31T03:41:04.082Z,2.83
2022-08-31T03:46:11.782Z,3.35
2022-08-31T03:51:20.326Z,3.45
2022-08-31T03:56:25.977Z,5.55
2022-08-31T04:01:29.886Z,3.58
2022-08-31T04:06:52.133Z,2.95
2022-08-31T04:12:29.357Z,3.85
2022-08-31T04:17:46.437Z,3.63
2022-08-31T04:23:15.859Z,2.95
2022-08-31T04:28:26.429Z,3.13
2022-08-31T04:33:30.067Z,4.40
2022-08-31T04:38:34.358Z,6.72
2022-08-31T04:43:44.220Z,5.40
2022-08-31T04:48:48.610Z,5.20
2022-08-31T04:53:53.935Z,6.80
2022-08-31T04:59:02.996Z,4.65
2022-08-31T05:04:10.528Z,7.38
2022-08-31T05:09:19.616Z,4.43
2022-08-31T05:14:27.242Z,5.63
2022-08-31T05:19:45.564Z,4.65
2022-08-31T05:24:51.720Z,5.70
2022-08-31T05:29:56.760Z,7.78
2022-08-31T05:35:18.878Z,14.43
2022-08-31T05:40:23.105Z,10.88
2022-08-31T05:45:28.866Z,11.80
2022-08-31T05:50:32.631Z,10.30
2022-08-31T05:55:38.234Z,9.98
2022-08-31T06:00:43.343Z,18.35
2022-08-31T06:06:11.347Z,10.43
2022-08-31T06:11:19.341Z,10.00
2022-08-31T06:16:26.276Z,7.15
2022-08-31T06:21:34.284Z,9.27
2022-08-31T06:26:38.957Z,6.30
2022-08-31T06:31:52.665Z,5.82
2022-08-31T06:36:57.719Z,4.95
2022-08-31T06:42:24.428Z,6.13
2022-08-31T06:47:35.586Z,5.85
2022-08-31T06:52:39.427Z,7.45
2022-08-31T06:57:54.352Z,7.50
2022-08-31T07:03:23.087Z,6.25
2022-08-31T07:08:27.825Z,7.38
2022-08-31T07:13:32.587Z,7.43
2022-08-31T07:18:39.066Z,5.93
2022-08-31T07:23:45.607Z,4.87
2022-08-31T07:28:54.348Z,6.20
2022-08-31T07:33:59.923Z,6.67
2022-08-31T07:39:22.423Z,8.85
2022-08-31T07:44:29.145Z,7.55
2022-08-31T07:49:35.421Z,5.60
2022-08-31T07:55:07.750Z,6.05
2022-08-31T08:00:36.190Z,7.65
2022-08-31T08:05:41.739Z,5.10
2022-08-31T08:11:10.738Z,7.05
2022-08-31T08:16:19.980Z,6.35
2022-08-31T08:21:34.065Z,7.13
2022-08-31T08:26:42.930Z,7.75
2022-08-31T08:32:13.166Z,10.15
2022-08-31T08:37:35.658Z,9.43
2022-08-31T08:42:46.059Z,9.17
2022-08-31T08:47:50.817Z,8.30
2022-08-31T08:52:58.760Z,8.35
2022-08-31T08:58:08.014Z,6.60
2022-08-31T09:03:30.948Z,6.35
2022-08-31T09:09:26.075Z,5.03
2022-08-31T09:14:53.936Z,8.05
2022-08-31T09:20:00.572Z,7.05
2022-08-31T09:25:10.028Z,5.38
2022-08-31T09:30:51.668Z,6.68
2022-08-31T09:36:16.530Z,10.70
2022-08-31T09:41:35.493Z,3.70
2022-08-31T09:46:39.365Z,7.85
2022-08-31T09:51:43.042Z,6.70
2022-08-31T09:56:58.508Z,9.18
2022-08-31T10:02:06.069Z,5.00
2022-08-31T10:07:37.773Z,5.97
2022-08-31T10:12:50.828Z,6.90
2022-08-31T10:18:03.157Z,4.20
2022-08-31T10:23:20.895Z,5.90
2022-08-31T10:28:36.684Z,6.55
2022-08-31T10:34:07.157Z,5.68
2022-08-31T10:39:26.351Z,8.02
2022-08-31T10:44:42.301Z,6.93
2022-08-31T10:49:55.892Z,7.25
2022-08-31T10:55:09.263Z,8.10
2022-08-31T11:00:34.795Z,6.85
2022-08-31T11:05:48.627Z,6.43
2022-08-31T11:10:57.520Z,4.85
2022-08-31T11:16:27.141Z,5.50
2022-08-31T11:22:00.474Z,5.35
2022-08-31T11:27:14.530Z,6.22
2022-08-31T11:32:29.932Z,8.43
2022-08-31T11:37:55.597Z,10.60
2022-08-31T11:43:01.510Z,17.48
2022-08-31T11:48:30.464Z,42.60
2022-08-31T11:53:41.179Z,37.15
2022-08-31T11:58:48.214Z,33.60
2022-08-31T12:04:03.266Z,24.27
2022-08-31T12:26:55.932Z,12.25
2022-08-31T12:32:24.145Z,9.27
2022-08-31T12:37:33.407Z,11.10
2022-08-31T12:42:46.699Z,8.00
2022-08-31T12:48:04.138Z,10.50
2022-08-31T12:54:02.476Z,8.17
2022-08-31T12:59:45.674Z,8.50
2022-08-31T13:04:51.272Z,7.57
2022-08-31T13:10:09.788Z,6.45
2022-08-31T13:15:25.970Z,7.55
2022-08-31T13:20:44.375Z,5.88
2022-08-31T13:26:02.987Z,8.55
2022-08-31T13:31:11.259Z,6.18
2022-08-31T13:36:32.332Z,6.10
2022-08-31T13:41:43.643Z,7.50
2022-08-31T13:47:00.316Z,6.13
2022-08-31T13:52:06.924Z,8.33
2022-08-31T13:57:20.803Z,6.90
2022-08-31T14:02:37.254Z,6.10
2022-08-31T14:08:02.148Z,6.30
2022-08-31T14:13:20.103Z,5.93
2022-08-31T14:18:28.462Z,6.90
2022-08-31T14:23:36.599Z,7.85
2022-08-31T14:28:45.081Z,7.55
2022-08-31T14:34:07.997Z,4.35
2022-08-31T14:39:11.650Z,6.55
2022-08-31T14:44:19.107Z,7.55
2022-08-31T14:49:23.575Z,6.15
2022-08-31T14:54:34.687Z,7.50
2022-08-31T14:59:42.146Z,5.85
2022-08-31T15:04:46.289Z,7.32
2022-08-31T15:09:52.534Z,7.05
2022-08-31T15:14:59.869Z,6.27
2022-08-31T15:20:06.055Z,7.38
2022-08-31T15:25:12.978Z,5.22
2022-08-31T15:30:20.726Z,7.53
2022-08-31T15:35:26.494Z,6.15
2022-08-31T15:40:38.793Z,5.50
2022-08-31T15:45:44.658Z,8.80
2022-08-31T15:50:53.695Z,6.07
2022-08-31T15:56:05.786Z,4.82
2022-08-31T16:01:16.234Z,8.65
2022-08-31T16:06:22.993Z,5.72
2022-08-31T16:11:31.222Z,11.87
2022-08-31T16:16:40.404Z,27.15
2022-08-31T16:21:49.079Z,15.13
2022-08-31T16:26:57.644Z,14.30
2022-08-31T16:32:03.734Z,11.68
2022-08-31T16:37:09.205Z,10.73
2022-08-31T16:42:14.997Z,10.38
2022-08-31T16:47:20.536Z,11.30
2022-08-31T16:52:26.826Z,13.40
2022-08-31T16:57:34.705Z,12.63
2022-08-31T17:02:39.974Z,10.68
2022-08-31T17:07:43.661Z,9.60
2022-08-31T17:12:48.368Z,8.43
2022-08-31T17:17:53.361Z,10.55
2022-08-31T17:22:56.972Z,8.15
2022-08-31T17:28:05.531Z,6.82
2022-08-31T17:33:14.239Z,5.75
2022-08-31T17:38:18.335Z,8.50
2022-08-31T17:43:22.113Z,6.95
2022-08-31T17:48:30.236Z,5.95
2022-08-31T17:53:34.705Z,9.45
2022-08-31T17:58:38.586Z,6.50
2022-08-31T18:03:43.663Z,8.10
2022-08-31T18:08:47.452Z,6.15
2022-08-31T18:13:53.586Z,8.13
2022-08-31T18:18:58.977Z,5.67
2022-08-31T18:24:02.671Z,6.32
2022-08-31T18:29:09.184Z,5.43
2022-08-31T18:34:21.982Z,8.40
2022-08-31T18:39:50.571Z,8.65
2022-08-31T18:45:09.725Z,5.23
2022-08-31T18:50:15.291Z,5.85
2022-08-31T18:55:19.703Z,5.22
2022-08-31T19:00:23.427Z,6.15
2022-08-31T19:05:28.614Z,6.13
2022-08-31T19:10:32.206Z,6.60
2022-08-31T19:15:39.772Z,5.72
2022-08-31T19:20:44.775Z,10.75
2022-08-31T19:25:50.266Z,23.52
2022-08-31T19:30:53.896Z,31.05
2022-08-31T19:36:04.852Z,30.15
2022-08-31T19:41:17.819Z,23.83
2022-08-31T19:46:29.110Z,13.88
2022-08-31T19:51:36.012Z,10.50
2022-08-31T19:56:43.698Z,31.50
2022-08-31T20:01:49.830Z,15.05
2022-08-31T20:06:56.156Z,8.07
2022-08-31T20:12:00.324Z,9.93
2022-08-31T20:17:05.806Z,9.77
2022-08-31T20:22:10.871Z,13.25
2022-08-31T20:27:16.468Z,11.75
2022-08-31T20:32:23.258Z,9.30
2022-08-31T20:37:28.378Z,9.68
2022-08-31T20:42:32.043Z,8.13
2022-08-31T20:47:54.426Z,9.35
2022-08-31T20:52:59.426Z,7.43
2022-08-31T20:58:03.180Z,10.25
2022-08-31T21:03:07.272Z,8.43
2022-08-31T21:08:15.937Z,9.55
2022-08-31T21:13:19.849Z,6.60
2022-08-31T21:18:23.570Z,7.50
2022-08-31T21:23:31.476Z,8.63
2022-08-31T21:28:38.536Z,15.35
2022-08-31T21:33:42.765Z,16.90
2022-08-31T21:38:48.092Z,14.43
2022-08-31T21:43:54.903Z,17.02
2022-08-31T21:49:00.767Z,5.45
2022-08-31T21:54:09.909Z,9.55
2022-08-31T21:59:15.014Z,5.28
2022-08-31T22:04:21.235Z,7.10
2022-08-31T22:09:28.019Z,8.07
2022-08-31T22:14:33.770Z,8.25
2022-08-31T22:19:40.530Z,6.13
2022-08-31T22:24:45.569Z,4.78
2022-08-31T22:29:49.161Z,8.23
2022-08-31T22:34:53.009Z,5.63
2022-08-31T22:39:58.355Z,5.95
2022-08-31T22:45:02.902Z,7.45
2022-08-31T22:50:08.352Z,7.82
2022-08-31T22:55:13.577Z,6.75
2022-08-31T23:00:19.745Z,6.10
2022-08-31T23:05:24.585Z,7.57
2022-08-31T23:10:29.682Z,4.63
2022-08-31T23:15:33.645Z,9.68
2022-08-31T23:20:39.231Z,9.40
2022-08-31T23:25:44.289Z,7.50
2022-08-31T23:30:50.220Z,6.47
2022-08-31T23:35:56.270Z,5.82
2022-08-31T23:41:01.612Z,8.23
2022-08-31T23:46:05.391Z,9.20
2022-08-31T23:51:10.621Z,8.75
2022-08-31T23:56:16.272Z,8.85
